Time;durP1;ratioP1;P1;durP2;ratioP2;P2;SDS_P1;SDS_P2;PMS_P1;PMS_P2;Temp;Humidity;BMP_temperature;BMP_pressure;BME280_temperature;BME280_humidity;BME280_pressure;Samples;Min_cycle;Max_cycle;Signal;HPM_P1;HPM_P2
2021/04/08 00:00:31;;;;;;;7.47;1.95;;;4.30;99.90;;;;;;5029699;28;20029;-72
2021/04/08 00:02:57;;;;;;;6.13;1.50;;;4.30;99.90;;;;;;5029950;28;20040;-71
2021/04/08 00:05:22;;;;;;;6.72;1.65;;;4.30;99.90;;;;;;5030527;28;20037;-71
2021/04/08 00:07:48;;;;;;;4.07;1.48;;;4.30;99.90;;;;;;5027197;28;20110;-71
2021/04/08 00:10:14;;;;;;;3.33;1.35;;;4.30;99.90;;;;;;5023069;28;20042;-71
2021/04/08 00:12:40;;;;;;;3.83;1.42;;;4.20;99.90;;;;;;5023754;28;20029;-71
2021/04/08 00:15:11;;;;;;;8.02;2.17;;;4.20;99.90;;;;;;5029837;28;20472;-71
2021/04/08 00:17:36;;;;;;;5.30;1.77;;;4.20;99.90;;;;;;5026696;28;20030;-71
2021/04/08 00:20:08;;;;;;;12.20;1.95;;;4.30;99.90;;;;;;5029732;28;20040;-71
2021/04/08 00:22:36;;;;;;;3.80;1.40;;;4.30;99.90;;;;;;5022189;28;20045;-71
2021/04/08 00:25:02;;;;;;;5.15;1.77;;;4.30;99.90;;;;;;5027584;28;20029;-71
2021/04/08 00:27:27;;;;;;;7.85;2.15;;;4.30;99.90;;;;;;5020913;28;20088;-71
2021/04/08 00:29:53;;;;;;;6.53;1.67;;;4.40;99.90;;;;;;5029635;28;20029;-71
2021/04/08 00:32:18;;;;;;;4.55;1.60;;;4.40;99.90;;;;;;5030761;28;20037;-71
2021/04/08 00:34:44;;;;;;;5.15;1.60;;;4.40;99.90;;;;;;5029454;28;20206;-71
2021/04/08 00:37:09;;;;;;;7.57;1.65;;;4.40;99.90;;;;;;5028126;28;20037;-71
2021/04/08 00:39:35;;;;;;;5.45;1.52;;;4.40;99.90;;;;;;5030188;28;20092;-71
2021/04/08 00:42:00;;;;;;;4.68;1.58;;;4.40;99.90;;;;;;5029299;28;20025;-71
2021/04/08 00:44:26;;;;;;;6.25;2.30;;;4.40;99.90;;;;;;5023649;28;20369;-71
2021/04/08 00:46:51;;;;;;;8.43;1.55;;;4.40;99.90;;;;;;5030834;28;20500;-71
2021/04/08 00:49:17;;;;;;;5.55;1.33;;;4.40;99.90;;;;;;5023428;28;20042;-71
2021/04/08 00:51:42;;;;;;;4.13;1.40;;;4.40;99.90;;;;;;5027435;28;20037;-71
2021/04/08 00:54:08;;;;;;;5.75;1.70;;;4.40;99.90;;;;;;5029110;28;20080;-71
2021/04/08 00:56:34;;;;;;;5.07;1.58;;;4.30;99.90;;;;;;5026291;28;20022;-71
2021/04/08 00:59:01;;;;;;;10.05;1.73;;;4.30;99.90;;;;;;5028784;28;20021;-71
2021/04/08 01:01:26;;;;;;;3.97;1.30;;;4.40;99.90;;;;;;5029139;28;20028;-71
2021/04/08 01:03:52;;;;;;;6.88;1.63;;;4.30;99.90;;;;;;5029583;28;20437;-72
2021/04/08 01:06:17;;;;;;;6.47;1.80;;;4.30;99.90;;;;;;5025101;28;20401;-72
2021/04/08 01:08:43;;;;;;;5.80;2.00;;;4.40;99.90;;;;;;5029454;28;20045;-73
2021/04/08 01:11:08;;;;;;;4.72;1.70;;;4.40;99.90;;;;;;5029506;28;20057;-72
2021/04/08 01:13:36;;;;;;;3.67;1.30;;;4.40;99.90;;;;;;5030978;28;20091;-72
2021/04/08 01:16:20;;;;;;;7.75;2.20;;;4.40;99.90;;;;;;5025158;28;20017;-72
2021/04/08 01:19:10;;;;;;;9.13;1.70;;;4.40;99.90;;;;;;5028365;28;20044;-73
2021/04/08 01:21:40;;;;;;;4.22;1.65;;;4.40;99.90;;;;;;5029509;28;20044;-72
2021/04/08 01:24:17;;;;;;;3.92;2.00;;;4.50;99.90;;;;;;5022248;28;20037;-72
2021/04/08 01:26:52;;;;;;;8.27;2.00;;;4.40;99.90;;;;;;5027670;28;20088;-72
2021/04/08 01:29:31;;;;;;;5.65;2.00;;;4.40;99.90;;;;;;5027543;28;20056;-72
2021/04/08 01:32:01;;;;;;;5.88;1.58;;;4.50;99.90;;;;;;5029061;28;20083;-72
2021/04/08 01:34:29;;;;;;;5.70;1.52;;;4.50;99.90;;;;;;5022083;28;20414;-72
2021/04/08 01:37:00;;;;;;;3.13;1.52;;;4.50;99.90;;;;;;5020113;28;20080;-72
2021/04/08 01:39:26;;;;;;;3.00;1.63;;;4.40;99.90;;;;;;5023237;28;20033;-72
2021/04/08 01:41:55;;;;;;;4.45;1.85;;;4.40;99.90;;;;;;5027839;28;20488;-72
2021/04/08 01:44:23;;;;;;;6.88;2.00;;;4.30;99.90;;;;;;5027448;28;20102;-72
2021/04/08 01:47:05;;;;;;;4.72;2.00;;;4.30;99.90;;;;;;5024979;28;20484;-72
2021/04/08 01:49:33;;;;;;;1.60;1.30;;;4.30;99.90;;;;;;5029719;28;20095;-73
2021/04/08 01:51:59;;;;;;;5.32;1.95;;;4.30;99.90;;;;;;5027441;28;20053;-72
2021/04/08 01:54:27;;;;;;;5.72;1.92;;;4.30;99.90;;;;;;5030377;28;20057;-72
2021/04/08 01:57:03;;;;;;;7.18;2.00;;;4.30;99.90;;;;;;5029250;28;20030;-72
2021/04/08 01:59:30;;;;;;;10.00;2.10;;;4.40;99.90;;;;;;5026418;28;20495;-72
2021/04/08 02:01:57;;;;;;;6.50;1.90;;;4.40;99.90;;;;;;5028218;28;20045;-72
2021/04/08 02:04:26;;;;;;;8.35;2.67;;;4.40;99.90;;;;;;5027812;28;20021;-72
2021/04/08 02:06:52;;;;;;;7.50;1.77;;;4.30;99.90;;;;;;5028695;28;20033;-72
2021/04/08 02:09:20;;;;;;;6.95;1.83;;;4.30;99.90;;;;;;5020214;28;20033;-72
2021/04/08 02:11:47;;;;;;;11.82;2.58;;;4.40;99.90;;;;;;5027446;28;20029;-72
2021/04/08 02:14:14;;;;;;;4.00;1.85;;;4.40;99.90;;;;;;5028011;28;20029;-72
2021/04/08 02:16:43;;;;;;;5.72;1.70;;;4.40;99.90;;;;;;5028294;28;20100;-72
2021/04/08 02:19:08;;;;;;;3.45;1.75;;;4.40;99.90;;;;;;5023827;28;20045;-72
2021/04/08 02:21:34;;;;;;;4.97;1.80;;;4.40;99.90;;;;;;5024547;28;20179;-72
2021/04/08 02:24:01;;;;;;;9.25;2.05;;;4.40;99.90;;;;;;5029545;28;20033;-72
2021/04/08 02:26:28;;;;;;;10.25;2.38;;;4.30;99.90;;;;;;5024161;28;20357;-72
2021/04/08 02:28:54;;;;;;;11.52;2.35;;;4.30;99.90;;;;;;5022733;28;20030;-72
2021/04/08 02:31:20;;;;;;;9.05;2.50;;;4.30;99.90;;;;;;5027230;28;20578;-72
2021/04/08 02:33:46;;;;;;;11.68;3.00;;;4.30;99.90;;;;;;5029662;28;20037;-72
2021/04/08 02:36:12;;;;;;;8.15;2.40;;;4.30;99.90;;;;;;5027325;28;20029;-72
2021/04/08 02:38:38;;;;;;;7.07;2.30;;;4.40;99.90;;;;;;5020218;28;20056;-72
2021/04/08 02:41:07;;;;;;;8.50;2.22;;;4.30;99.90;;;;;;5027484;28;20060;-72
2021/04/08 02:43:33;;;;;;;5.35;1.98;;;4.30;99.90;;;;;;5029005;28;20033;-72
2021/04/08 02:45:59;;;;;;;8.15;2.53;;;4.40;99.90;;;;;;5026582;28;20033;-72
2021/04/08 02:48:25;;;;;;;9.40;2.35;;;4.40;99.90;;;;;;5024245;28;20590;-72
2021/04/08 02:50:54;;;;;;;7.95;2.75;;;4.40;99.90;;;;;;5026436;28;20060;-73
2021/04/08 02:53:37;;;;;;;8.77;2.17;;;4.40;99.90;;;;;;5026700;28;20021;-72
2021/04/08 02:56:16;;;;;;;8.68;1.90;;;4.40;99.90;;;;;;5023989;28;20496;-72
2021/04/08 02:58:44;;;;;;;9.50;2.25;;;4.40;99.90;;;;;;5026761;28;20108;-72
2021/04/08 03:01:18;;;;;;;10.60;2.42;;;4.30;99.90;;;;;;5025994;28;20549;-72
2021/04/08 03:03:52;;;;;;;6.43;2.17;;;4.30;99.90;;;;;;5026757;28;20087;-72
2021/04/08 03:06:18;;;;;;;2.67;1.80;;;4.30;99.90;;;;;;5015066;28;20552;-72
2021/04/08 03:08:48;;;;;;;6.20;1.77;;;4.30;99.90;;;;;;5015575;28;20121;-72
2021/04/08 03:11:16;;;;;;;5.18;1.50;;;4.20;99.90;;;;;;5019725;28;20133;-72
2021/04/08 03:13:45;;;;;;;4.28;1.52;;;4.20;99.90;;;;;;5018447;28;20091;-72
2021/04/08 03:16:18;;;;;;;5.47;1.60;;;4.20;99.90;;;;;;5026758;28;20029;-71
2021/04/08 03:18:47;;;;;;;5.47;1.70;;;4.20;99.90;;;;;;5016416;28;20457;-72
2021/04/08 03:21:13;;;;;;;5.30;1.70;;;4.20;99.90;;;;;;5021835;28;20033;-72
2021/04/08 03:23:39;;;;;;;8.20;2.30;;;4.20;99.90;;;;;;5025753;28;20037;-72
2021/04/08 03:26:05;;;;;;;4.60;1.33;;;4.20;99.90;;;;;;5024862;28;20443;-72
2021/04/08 03:28:32;;;;;;;9.35;1.70;;;4.20;99.90;;;;;;5022440;28;20504;-73
2021/04/08 03:30:57;;;;;;;8.05;2.33;;;4.30;99.90;;;;;;5026280;28;20500;-72
2021/04/08 03:33:24;;;;;;;7.57;1.88;;;4.30;99.90;;;;;;5028444;28;20026;-72
2021/04/08 03:35:50;;;;;;;6.35;1.95;;;4.30;99.90;;;;;;5032028;28;20495;-73
2021/04/08 03:38:17;;;;;;;6.28;2.03;;;4.30;99.90;;;;;;5027307;28;20029;-72
2021/04/08 03:40:44;;;;;;;7.22;1.92;;;4.30;99.90;;;;;;5031904;28;20492;-72
2021/04/08 03:43:11;;;;;;;4.72;2.00;;;4.30;99.90;;;;;;5022656;28;20060;-72
2021/04/08 03:45:37;;;;;;;7.10;2.35;;;4.30;99.90;;;;;;5029269;28;20112;-73
2021/04/08 03:48:04;;;;;;;8.00;2.42;;;4.30;99.90;;;;;;5032080;28;20548;-72
2021/04/08 03:50:33;;;;;;;10.20;2.13;;;4.30;99.90;;;;;;5030080;28;20071;-72
2021/04/08 03:53:00;;;;;;;9.80;2.45;;;4.20;99.90;;;;;;5030106;28;20025;-72
2021/04/08 03:55:27;;;;;;;11.13;2.67;;;4.10;99.90;;;;;;5022998;28;20030;-72
2021/04/08 03:57:54;;;;;;;7.32;2.90;;;4.10;99.90;;;;;;5021631;28;20022;-72
2021/04/08 04:00:20;;;;;;;7.95;2.53;;;4.00;99.90;;;;;;5027892;28;20041;-72
2021/04/08 04:02:46;;;;;;;8.57;2.35;;;4.00;99.90;;;;;;5031870;28;20112;-72
2021/04/08 04:05:13;;;;;;;7.53;2.40;;;4.00;99.90;;;;;;5027810;28;20480;-72
2021/04/08 04:07:41;;;;;;;7.53;2.80;;;3.90;99.90;;;;;;5030848;28;20116;-72
2021/04/08 04:10:07;;;;;;;5.15;2.33;;;3.80;99.90;;;;;;5029470;28;20422;-72
2021/04/08 04:12:37;;;;;;;12.05;3.08;;;3.80;99.90;;;;;;5029092;28;20033;-72
2021/04/08 04:15:05;;;;;;;7.17;2.40;;;3.80;99.90;;;;;;5030341;28;20034;-72
2021/04/08 04:17:32;;;;;;;4.68;2.22;;;3.80;99.90;;;;;;5019780;28;20026;-72
2021/04/08 04:19:58;;;;;;;7.15;2.38;;;3.70;99.90;;;;;;5025209;28;20075;-72
2021/04/08 04:22:24;;;;;;;8.02;2.72;;;3.70;99.90;;;;;;5031445;28;20129;-72
2021/04/08 04:24:50;;;;;;;6.88;3.05;;;3.70;99.90;;;;;;5023532;28;20033;-72
2021/04/08 04:27:16;;;;;;;7.82;2.45;;;3.70;99.90;;;;;;5031994;28;20385;-72
2021/04/08 04:29:42;;;;;;;7.80;2.90;;;3.70;99.90;;;;;;5030150;28;20034;-72
2021/04/08 04:32:09;;;;;;;10.55;3.13;;;3.80;99.90;;;;;;5025052;28;20037;-72
2021/04/08 04:34:36;;;;;;;8.18;2.80;;;3.90;99.90;;;;;;5026972;28;20075;-72
2021/04/08 04:37:02;;;;;;;9.95;3.38;;;3.90;99.90;;;;;;5026069;28;20032;-72
2021/04/08 04:39:27;;;;;;;8.48;2.13;;;3.90;99.90;;;;;;5026951;28;20032;-72
2021/04/08 04:41:53;;;;;;;9.27;2.40;;;3.90;99.90;;;;;;5023675;28;20037;-72
2021/04/08 04:44:18;;;;;;;7.20;2.33;;;3.90;99.90;;;;;;5018958;28;20049;-72
2021/04/08 04:46:44;;;;;;;5.38;2.25;;;3.90;99.90;;;;;;5019960;28;20026;-71
2021/04/08 04:49:09;;;;;;;10.02;2.35;;;3.90;99.90;;;;;;5030893;28;20072;-72
2021/04/08 04:51:35;;;;;;;4.15;2.10;;;4.00;99.90;;;;;;5024205;28;20444;-72
2021/04/08 04:54:00;;;;;;;8.52;2.38;;;4.00;99.90;;;;;;5029466;28;20056;-72
2021/04/08 04:56:26;;;;;;;7.38;2.05;;;4.00;99.90;;;;;;5027430;28;20018;-72
2021/04/08 04:58:51;;;;;;;10.45;1.98;;;4.10;99.90;;;;;;5025807;28;20467;-72
2021/04/08 05:01:17;;;;;;;4.85;2.10;;;4.10;99.90;;;;;;5023859;28;20038;-72
2021/04/08 05:03:42;;;;;;;9.05;2.03;;;4.10;99.90;;;;;;5027472;28;20035;-72
2021/04/08 05:06:08;;;;;;;10.77;2.05;;;4.10;99.90;;;;;;5029912;28;20645;-72
2021/04/08 05:08:33;;;;;;;8.60;2.05;;;4.10;99.90;;;;;;5026085;28;20032;-72
2021/04/08 05:10:59;;;;;;;12.57;2.17;;;4.10;99.90;;;;;;5029122;28;20109;-72
2021/04/08 05:13:24;;;;;;;6.25;2.03;;;4.10;99.90;;;;;;5027117;28;20025;-72
2021/04/08 05:15:50;;;;;;;6.82;1.92;;;4.10;99.90;;;;;;5028028;28;20033;-72
2021/04/08 05:18:15;;;;;;;11.57;2.50;;;4.10;99.90;;;;;;5030717;28;20499;-72
2021/04/08 05:20:42;;;;;;;5.53;2.30;;;4.10;99.90;;;;;;5030224;28;20048;-72
2021/04/08 05:23:08;;;;;;;7.88;2.45;;;4.10;99.90;;;;;;5024526;28;20030;-72
2021/04/08 05:25:33;;;;;;;6.10;2.35;;;4.10;99.90;;;;;;5028927;28;20555;-72
2021/04/08 05:27:59;;;;;;;12.77;2.67;;;4.10;99.90;;;;;;5029782;28;20541;-71
2021/04/08 05:30:25;;;;;;;11.85;2.28;;;4.10;99.90;;;;;;5028669;28;20029;-72
2021/04/08 05:32:50;;;;;;;10.57;2.30;;;4.20;99.90;;;;;;5029034;28;20033;-72
2021/04/08 05:35:16;;;;;;;9.88;2.70;;;4.10;99.90;;;;;;5026794;28;20049;-72
2021/04/08 05:37:42;;;;;;;5.32;2.10;;;4.10;99.90;;;;;;5029444;28;20595;-72
2021/04/08 05:40:08;;;;;;;9.63;2.13;;;4.10;99.90;;;;;;5024888;28;20498;-72
2021/04/08 05:42:33;;;;;;;6.75;2.38;;;4.10;99.90;;;;;;5023072;28;20037;-72
2021/04/08 05:44:59;;;;;;;7.82;2.13;;;4.10;99.90;;;;;;5024895;28;20030;-72
2021/04/08 05:47:24;;;;;;;11.90;2.40;;;4.10;99.90;;;;;;5020975;28;20063;-72
2021/04/08 05:49:50;;;;;;;7.50;2.08;;;4.10;99.90;;;;;;5022682;28;20046;-72
2021/04/08 05:52:15;;;;;;;6.38;2.60;;;4.20;99.90;;;;;;5026186;28;20025;-72
2021/04/08 05:54:41;;;;;;;7.38;1.73;;;4.20;99.90;;;;;;5025514;28;20489;-72
2021/04/08 05:57:06;;;;;;;7.55;2.55;;;4.20;99.90;;;;;;5017441;28;20032;-72
2021/04/08 05:59:32;;;;;;;7.30;2.08;;;4.20;99.90;;;;;;5028334;28;20029;-72
2021/04/08 06:01:57;;;;;;;5.05;1.67;;;4.30;99.90;;;;;;5023696;28;20029;-72
2021/04/08 06:04:23;;;;;;;5.30;1.80;;;4.30;99.90;;;;;;5026656;28;20032;-72
2021/04/08 06:06:48;;;;;;;4.70;1.65;;;4.30;99.90;;;;;;5027306;28;20061;-72
2021/04/08 06:09:14;;;;;;;10.73;2.33;;;4.30;99.90;;;;;;5028076;28;20033;-72
2021/04/08 06:11:39;;;;;;;11.68;2.03;;;4.30;99.90;;;;;;5020454;28;20663;-72
2021/04/08 06:14:05;;;;;;;8.68;2.40;;;4.30;99.90;;;;;;5024399;28;20028;-72
2021/04/08 06:16:30;;;;;;;4.32;1.70;;;4.30;99.90;;;;;;5025907;28;20652;-76
2021/04/08 06:18:56;;;;;;;9.15;2.22;;;4.40;99.90;;;;;;5024222;28;20084;-76
2021/04/08 06:21:22;;;;;;;9.55;2.45;;;4.40;99.90;;;;;;5019665;28;20048;-77
2021/04/08 06:23:47;;;;;;;7.63;2.80;;;4.50;99.90;;;;;;5021179;28;20025;-77
2021/04/08 06:26:13;;;;;;;6.15;2.42;;;4.50;99.90;;;;;;5017013;28;20036;-77
2021/04/08 06:28:38;;;;;;;6.65;2.35;;;4.50;99.90;;;;;;5027096;28;20037;-74
2021/04/08 06:31:03;;;;;;;7.68;2.10;;;4.50;99.90;;;;;;5026679;28;20045;-77
2021/04/08 06:33:29;;;;;;;16.05;2.58;;;4.50;99.90;;;;;;5021080;28;20100;-75
2021/04/08 06:35:55;;;;;;;7.30;2.22;;;4.50;99.90;;;;;;5028575;28;20083;-77
2021/04/08 06:38:21;;;;;;;9.43;1.88;;;4.50;99.90;;;;;;5025957;28;20029;-75
2021/04/08 06:40:46;;;;;;;5.90;1.70;;;4.50;99.90;;;;;;5025593;28;20376;-75
2021/04/08 06:43:12;;;;;;;8.52;1.90;;;4.50;99.90;;;;;;5028563;28;20101;-75
2021/04/08 06:45:45;;;;;;;7.40;2.70;;;4.70;99.90;;;;;;5026454;28;20404;-76
2021/04/08 06:48:20;;;;;;;6.07;2.40;;;4.70;99.90;;;;;;5024827;28;20051;-74
2021/04/08 06:50:48;;;;;;;4.10;1.75;;;4.80;99.90;;;;;;5025517;28;20029;-74
2021/04/08 06:53:14;;;;;;;7.47;2.17;;;4.80;99.90;;;;;;5026154;28;20439;-74
2021/04/08 06:55:42;;;;;;;5.95;2.10;;;4.90;99.90;;;;;;5026943;28;20064;-74
2021/04/08 06:58:08;;;;;;;8.35;1.73;;;4.90;99.90;;;;;;5017378;28;20014;-73
2021/04/08 07:00:34;;;;;;;7.07;1.85;;;4.90;99.90;;;;;;5026104;28;20502;-74
2021/04/08 07:03:01;;;;;;;5.57;1.67;;;5.00;99.90;;;;;;5019771;28;20038;-73
2021/04/08 07:05:27;;;;;;;9.82;2.22;;;5.00;99.90;;;;;;5026528;28;20036;-73
2021/04/08 07:07:53;;;;;;;6.18;1.73;;;5.00;99.90;;;;;;5024149;28;20034;-70
2021/04/08 07:10:18;;;;;;;3.85;1.85;;;5.00;99.90;;;;;;5008026;28;20387;-70
2021/04/08 07:12:44;;;;;;;5.68;1.75;;;5.00;99.90;;;;;;5023595;28;20084;-70
2021/04/08 07:15:10;;;;;;;8.05;2.30;;;5.10;99.90;;;;;;5022400;28;20036;-71
2021/04/08 07:17:35;;;;;;;7.20;2.35;;;5.20;99.90;;;;;;5023169;28;20044;-71
2021/04/08 07:20:02;;;;;;;7.40;2.22;;;5.20;99.90;;;;;;5026107;28;20488;-71
2021/04/08 07:22:28;;;;;;;9.02;2.22;;;5.30;99.90;;;;;;5024212;28;20036;-71
2021/04/08 07:24:54;;;;;;;6.88;1.80;;;5.20;99.90;;;;;;5027007;28;20021;-71
2021/04/08 07:27:22;;;;;;;6.85;2.08;;;5.20;99.90;;;;;;5020430;28;20484;-71
2021/04/08 07:30:01;;;;;;;5.50;1.90;;;5.20;99.90;;;;;;5020996;28;20037;-71
2021/04/08 07:32:46;;;;;;;2.65;1.92;;;5.20;99.90;;;;;;5018145;28;20032;-71
2021/04/08 07:35:17;;;;;;;9.02;2.13;;;5.30;99.90;;;;;;5019794;28;20109;-71
2021/04/08 07:37:55;;;;;;;11.88;2.17;;;5.40;99.90;;;;;;5020301;28;20048;-70
2021/04/08 07:40:23;;;;;;;8.32;1.92;;;5.50;99.90;;;;;;5021907;28;20532;-70
2021/04/08 07:42:49;;;;;;;7.97;2.00;;;5.70;99.90;;;;;;5025474;28;20119;-72
2021/04/08 07:45:29;;;;;;;5.40;1.60;;;5.70;99.90;;;;;;5023519;28;20107;-71
2021/04/08 07:48:12;;;;;;;6.50;2.10;;;5.70;99.90;;;;;;5027071;28;20045;-72
2021/04/08 07:50:40;;;;;;;5.88;1.77;;;5.80;99.90;;;;;;5022297;28;20515;-72
2021/04/08 07:53:06;;;;;;;4.60;1.65;;;5.80;99.90;;;;;;5021788;28;21335;-72
2021/04/08 07:55:31;;;;;;;5.10;1.63;;;5.80;99.50;;;;;;5026807;28;20388;-73
2021/04/08 07:58:06;;;;;;;4.90;1.55;;;5.80;99.90;;;;;;5022782;28;20041;-73
2021/04/08 08:00:38;;;;;;;4.80;1.83;;;5.80;99.50;;;;;;5019593;28;20130;-73
2021/04/08 08:03:28;;;;;;;11.43;2.00;;;5.90;99.70;;;;;;5022312;28;20514;-73
2021/04/08 08:05:59;;;;;;;6.05;1.25;;;6.00;99.90;;;;;;5023516;28;20111;-73
2021/04/08 08:08:38;;;;;;;5.20;1.67;;;6.10;99.90;;;;;;5029282;28;20026;-73
2021/04/08 08:11:09;;;;;;;7.65;1.63;;;6.10;98.70;;;;;;5024169;28;20080;-73
2021/04/08 08:13:37;;;;;;;8.60;1.73;;;6.10;98.00;;;;;;5030024;28;20075;-74
2021/04/08 08:16:05;;;;;;;7.93;1.65;;;6.10;98.20;;;;;;5029118;28;20034;-71
2021/04/08 08:18:36;;;;;;;4.95;1.75;;;6.20;97.70;;;;;;5029259;28;20029;-70
2021/04/08 08:21:09;;;;;;;6.28;1.48;;;6.30;98.40;;;;;;5021873;28;20036;-71
2021/04/08 08:23:43;;;;;;;9.82;1.70;;;6.50;97.80;;;;;;5014834;28;20044;-71
2021/04/08 08:26:30;;;;;;;4.78;1.80;;;6.60;97.50;;;;;;5019379;28;20036;-72
2021/04/08 08:29:03;;;;;;;4.68;1.65;;;6.70;95.60;;;;;;5031967;28;20021;-72
2021/04/08 08:31:35;;;;;;;6.05;1.42;;;6.80;96.30;;;;;;5030561;28;20519;-71
2021/04/08 08:34:07;;;;;;;6.43;1.50;;;6.80;94.20;;;;;;5025126;28;20022;-71
2021/04/08 08:36:33;;;;;;;7.75;1.55;;;6.80;93.30;;;;;;5031566;28;20022;-72
2021/04/08 08:39:01;;;;;;;5.32;1.60;;;6.90;94.30;;;;;;5031480;28;20017;-72
2021/04/08 08:41:28;;;;;;;8.15;1.88;;;6.90;93.90;;;;;;5031312;28;20025;-72
2021/04/08 08:43:56;;;;;;;3.70;1.38;;;7.00;92.10;;;;;;5031016;28;20119;-72
2021/04/08 08:46:26;;;;;;;5.78;1.42;;;6.90;92.50;;;;;;5030345;28;20025;-72
2021/04/08 08:49:03;;;;;;;4.88;1.50;;;7.10;93.10;;;;;;5014175;28;20045;-72
2021/04/08 08:51:28;;;;;;;7.38;1.85;;;7.30;93.60;;;;;;5026015;28;20039;-70
2021/04/08 08:53:54;;;;;;;2.72;1.27;;;7.50;92.30;;;;;;5027421;28;20022;-71
2021/04/08 08:56:25;;;;;;;10.30;2.10;;;7.60;90.90;;;;;;5025959;28;20546;-69
2021/04/08 08:58:55;;;;;;;5.88;1.10;;;7.60;90.90;;;;;;5016368;28;20021;-71
2021/04/08 09:01:24;;;;;;;7.05;1.48;;;7.60;85.90;;;;;;5028208;28;20034;-72
2021/04/08 09:03:51;;;;;;;4.97;1.33;;;7.60;84.60;;;;;;5025897;28;20036;-71
2021/04/08 09:06:22;;;;;;;7.05;1.30;;;7.50;83.50;;;;;;5027346;28;20124;-72
2021/04/08 09:08:56;;;;;;;5.25;1.58;;;7.40;84.70;;;;;;5024141;28;20024;-72
2021/04/08 09:11:32;;;;;;;2.72;1.23;;;7.50;86.40;;;;;;5027855;28;20025;-72
2021/04/08 09:14:00;;;;;;;6.32;1.60;;;7.50;86.70;;;;;;5026502;28;20095;-72
2021/04/08 09:16:28;;;;;;;6.63;1.67;;;7.60;87.60;;;;;;5027095;28;20029;-78
2021/04/08 09:19:07;;;;;;;4.90;1.00;;;7.50;88.70;;;;;;5026836;28;20484;-75
2021/04/08 09:21:47;;;;;;;5.25;1.35;;;7.60;86.20;;;;;;5027556;28;20606;-73
2021/04/08 09:24:13;;;;;;;5.43;1.70;;;7.70;84.90;;;;;;5027962;28;20039;-73
2021/04/08 09:26:40;;;;;;;4.43;1.17;;;7.70;81.40;;;;;;5027308;28;20214;-73
2021/04/08 09:29:08;;;;;;;6.72;1.45;;;7.80;79.00;;;;;;5027293;28;20040;-73
2021/04/08 09:31:34;;;;;;;5.47;1.42;;;7.80;77.80;;;;;;5028009;28;20064;-73
2021/04/08 09:34:00;;;;;;;6.50;1.88;;;7.90;78.90;;;;;;5027451;28;20069;-73
2021/04/08 09:36:27;;;;;;;4.35;1.48;;;7.80;78.20;;;;;;5028116;28;20120;-73
2021/04/08 09:39:14;;;;;;;7.80;1.40;;;7.70;78.40;;;;;;5027791;28;20503;-72
2021/04/08 09:41:51;;;;;;;5.50;1.20;;;7.70;78.10;;;;;;5025603;28;20044;-74
2021/04/08 09:44:18;;;;;;;4.75;0.98;;;7.80;78.50;;;;;;5026476;28;20075;-73
2021/04/08 09:46:53;;;;;;;9.07;1.73;;;7.80;77.80;;;;;;5026958;28;20361;-74
2021/04/08 09:49:51;;;;;;;7.35;1.52;;;7.90;75.60;;;;;;5027257;28;20041;-73
2021/04/08 09:52:17;;;;;;;3.33;1.15;;;7.90;75.80;;;;;;5025450;28;20504;-73
2021/04/08 09:54:58;;;;;;;7.38;1.15;;;8.00;76.00;;;;;;5027447;28;20034;-74
2021/04/08 09:57:37;;;;;;;3.10;1.10;;;8.00;74.80;;;;;;5026241;28;20041;-73
2021/04/08 10:00:08;;;;;;;4.70;0.90;;;8.20;75.60;;;;;;5027514;28;20488;-73
2021/04/08 10:02:34;;;;;;;4.68;1.50;;;8.30;73.00;;;;;;5025190;28;20530;-72
2021/04/08 10:05:04;;;;;;;5.30;1.33;;;8.30;72.10;;;;;;5026880;28;20029;-71
2021/04/08 10:07:30;;;;;;;5.95;1.17;;;8.50;72.50;;;;;;5025476;28;20068;-71
2021/04/08 10:09:56;;;;;;;5.45;1.50;;;8.50;71.00;;;;;;5026503;28;20496;-71
2021/04/08 10:12:33;;;;;;;3.58;1.70;;;8.40;71.30;;;;;;5026035;28;20477;-71
2021/04/08 10:14:59;;;;;;;4.28;1.25;;;8.20;72.80;;;;;;5027844;28;20060;-71
2021/04/08 10:17:36;;;;;;;8.88;1.23;;;8.10;72.70;;;;;;5026842;28;20044;-71
2021/04/08 10:20:04;;;;;;;4.47;1.10;;;8.00;73.90;;;;;;5027008;28;20469;-71
2021/04/08 10:22:39;;;;;;;4.00;1.40;;;8.10;73.40;;;;;;5026230;28;20119;-71
2021/04/08 10:25:05;;;;;;;2.15;1.17;;;8.50;72.70;;;;;;5027319;28;20025;-72
2021/04/08 10:27:31;;;;;;;3.92;1.05;;;8.80;71.90;;;;;;5025756;28;20086;-72
2021/04/08 10:29:59;;;;;;;3.60;0.88;;;9.10;68.90;;;;;;5027251;28;20595;-72
2021/04/08 10:32:37;;;;;;;2.00;0.70;;;9.20;65.80;;;;;;5026447;28;20029;-72
2021/04/08 10:35:04;;;;;;;3.33;1.23;;;9.10;65.50;;;;;;5027295;28;20033;-72
2021/04/08 10:37:29;;;;;;;4.63;1.20;;;9.10;66.30;;;;;;5026299;28;20109;-72
2021/04/08 10:39:55;;;;;;;1.98;0.80;;;9.10;63.50;;;;;;5024828;28;20465;-72
2021/04/08 10:42:22;;;;;;;1.83;0.90;;;9.30;66.60;;;;;;5026135;28;20029;-72
2021/04/08 10:44:52;;;;;;;3.55;0.90;;;9.50;65.50;;;;;;5025896;28;20037;-71
2021/04/08 10:47:20;;;;;;;2.65;1.00;;;9.80;60.50;;;;;;5024727;28;20518;-71
2021/04/08 10:49:49;;;;;;;5.47;1.17;;;9.80;59.60;;;;;;5026423;28;20419;-71
2021/04/08 10:52:17;;;;;;;1.80;1.15;;;9.60;60.30;;;;;;5026433;28;20046;-72
2021/04/08 10:54:47;;;;;;;7.03;1.30;;;9.80;65.20;;;;;;5025706;28;20021;-72
2021/04/08 10:57:14;;;;;;;4.15;0.98;;;10.30;65.20;;;;;;5025871;28;20029;-71
2021/04/08 10:59:41;;;;;;;4.25;1.10;;;10.60;63.90;;;;;;5026067;28;20528;-71
2021/04/08 11:02:25;;;;;;;2.47;1.02;;;10.90;62.90;;;;;;5026550;28;20033;-72
2021/04/08 11:04:52;;;;;;;3.03;0.90;;;11.00;61.80;;;;;;5025623;28;20041;-71
2021/04/08 11:07:19;;;;;;;5.00;1.48;;;11.20;59.00;;;;;;5024941;28;20488;-73
2021/04/08 11:09:47;;;;;;;2.45;1.10;;;11.50;61.00;;;;;;5025509;28;20030;-70
2021/04/08 11:12:25;;;;;;;3.17;1.08;;;11.60;60.30;;;;;;5025141;28;20048;-71
2021/04/08 11:14:56;;;;;;;1.50;0.80;;;11.60;59.30;;;;;;5026554;28;20079;-74
2021/04/08 11:17:23;;;;;;;3.30;0.90;;;11.40;56.20;;;;;;5026814;28;20045;-71
2021/04/08 11:19:50;;;;;;;3.53;0.80;;;11.00;57.10;;;;;;5027243;28;20055;-72
2021/04/08 11:22:20;;;;;;;3.58;0.90;;;10.60;55.80;;;;;;5026733;28;20053;-72
2021/04/08 11:24:48;;;;;;;5.93;1.02;;;10.10;55.80;;;;;;5026340;28;20036;-71
2021/04/08 11:27:13;;;;;;;6.28;1.90;;;9.80;57.60;;;;;;5027127;28;20057;-71
2021/04/08 11:29:39;;;;;;;1.75;0.85;;;9.60;57.80;;;;;;5023926;28;20068;-72
2021/04/08 11:32:06;;;;;;;4.97;1.10;;;9.40;58.10;;;;;;5026317;28;20814;-72
2021/04/08 11:34:52;;;;;;;2.85;1.13;;;9.20;58.60;;;;;;5025658;28;20053;-71
2021/04/08 11:37:31;;;;;;;2.40;1.13;;;9.20;58.90;;;;;;5026334;28;20448;-71
2021/04/08 11:39:59;;;;;;;1.65;1.00;;;9.40;59.30;;;;;;5026356;28;20041;-71
2021/04/08 11:42:25;;;;;;;4.38;1.15;;;9.40;60.40;;;;;;5026060;28;20043;-71
2021/04/08 11:44:52;;;;;;;2.13;0.95;;;9.50;60.50;;;;;;5030191;28;20128;-71
2021/04/08 11:47:21;;;;;;;2.78;1.15;;;9.50;58.70;;;;;;5030462;28;20091;-71
2021/04/08 11:49:54;;;;;;;2.05;1.08;;;9.50;58.00;;;;;;5028838;28;20053;-71
2021/04/08 11:52:22;;;;;;;3.13;1.42;;;9.60;58.70;;;;;;5026718;28;20049;-72
2021/04/08 11:55:01;;;;;;;2.90;0.70;;;9.80;58.80;;;;;;5029348;28;20025;-71
2021/04/08 11:57:27;;;;;;;2.58;1.52;;;10.60;58.50;;;;;;5029261;28;20025;-72
2021/04/08 12:00:53;;;;;;;;;;;;;;;;;;;;;
2021/04/08 12:03:25;;;;;;;4.13;1.10;;;11.70;56.80;;;;;;5004891;28;20041;-70
2021/04/08 12:05:51;;;;;;;4.28;1.10;;;11.90;54.60;;;;;;5028393;28;20459;-71
2021/04/08 12:08:44;;;;;;;4.95;0.90;;;11.90;52.70;;;;;;5029326;28;20033;-71
2021/04/08 12:11:11;;;;;;;3.10;0.90;;;11.70;51.10;;;;;;5029691;28;20037;-70
2021/04/08 12:13:37;;;;;;;3.08;0.82;;;11.30;51.20;;;;;;5029128;28;20026;-70
2021/04/08 12:16:06;;;;;;;4.20;1.08;;;10.90;51.10;;;;;;5028319;28;20631;-71
2021/04/08 12:18:31;;;;;;;1.77;0.77;;;10.70;49.90;;;;;;5027231;28;20555;-70
2021/04/08 12:21:08;;;;;;;3.95;0.70;;;10.40;51.00;;;;;;5028659;28;20026;-70
2021/04/08 12:23:35;;;;;;;3.05;0.82;;;10.60;51.10;;;;;;5028397;28;20044;-70
2021/04/08 12:26:01;;;;;;;3.33;0.80;;;11.60;51.30;;;;;;5029522;28;20030;-71
2021/04/08 12:28:27;;;;;;;1.45;0.90;;;12.30;48.90;;;;;;5029634;28;20036;-70
2021/04/08 12:30:59;;;;;;;2.50;0.90;;;12.30;48.90;;;;;;5029516;28;20064;-70
2021/04/08 12:33:30;;;;;;;5.43;1.10;;;11.80;49.40;;;;;;5030052;28;20038;-70
2021/04/08 12:35:58;;;;;;;2.90;1.27;;;11.30;51.30;;;;;;5029308;28;20107;-71
2021/04/08 12:38:24;;;;;;;3.47;1.35;;;10.90;52.10;;;;;;5029538;28;20060;-71
2021/04/08 12:40:51;;;;;;;3.22;1.15;;;10.50;54.30;;;;;;5028843;28;20040;-70
2021/04/08 12:43:17;;;;;;;5.28;1.60;;;10.10;55.40;;;;;;5029089;28;20029;-71
2021/04/08 12:45:42;;;;;;;6.07;1.17;;;9.80;57.10;;;;;;5029288;28;20049;-70
2021/04/08 12:48:08;;;;;;;2.95;1.10;;;9.60;57.70;;;;;;5028748;28;20121;-70
2021/04/08 12:50:36;;;;;;;3.85;1.17;;;9.60;58.10;;;;;;5028416;28;20029;-70
2021/04/08 12:53:01;;;;;;;7.47;1.42;;;9.70;58.40;;;;;;5028122;28;20025;-70
2021/04/08 12:55:27;;;;;;;4.22;1.10;;;9.80;57.80;;;;;;5028777;28;20029;-71
2021/04/08 12:57:54;;;;;;;3.88;1.10;;;10.10;56.30;;;;;;5029138;28;20025;-71
2021/04/08 13:00:20;;;;;;;3.45;0.98;;;11.00;54.80;;;;;;5028211;28;20534;-71
2021/04/08 13:02:46;;;;;;;4.75;1.10;;;12.40;53.30;;;;;;5028813;28;20080;-71